Aviation Digital Data Service (ADDS)

Output produced by METARs form (1832 UTC 27 July 2017)
found at http://aviationweather.gov/adds/metars/
 
KBPT 271753Z 20006KT 10SM FEW041 33/24 A3006 RMK AO2 LTG DSNT E SLP178 T03280239 10344 20244 58003 $